x

Keaton Beach, Fl (ktnf1) Weather Station

7:00am - Thu 2nd Oct 2014 All times are CDT. -5 hours from GMT.

  • Wind
    3mph, 6mph gusts
  • Air Temp 70°f
  • Sea Pressure 1017.3mb
  • Keaton Beach, Fl
  • Keaton Beach, Fl

More Historic Weather Station data

Upgrade to MSW Pro to gain access to the past 30 days of data for over 8000 Wavebouys and Weather Stations around the globe.

Join Pro

Comparision Forecast

View Surf forecast
   
Thu 10/02 7:00am 3 6 mph 1017.3mb 70f
6:00am 3 7 mph 1016.7mb 70f
5:00am 5 7 mph 1016.2mb 71f
4:00am 6 7 mph 1015.7mb 71f
3:00am 5 7 mph 1015.8mb 71f
2:00am 7
mph
1015.8mb 72f
1:00am 5 6 mph 1016mb 72f
12:00am 6 7 mph 1016.3mb 73f
Wed 10/01 11:00pm 5 6 mph 1016.3mb 73f
10:00pm 3 6 mph 1016.2mb 74f
9:00pm 3 5 mph 1015.6mb 74f
8:00pm 3 5 mph 1015.1mb 76f
7:00pm 3 5 mph 1014.4mb 77f
6:00pm 3 6 mph 1014.1mb 80f
5:00pm 5 7 mph 1013.8mb 82f
4:00pm 7 9 mph 1013.6mb 82f
3:00pm 8 9 mph 1013.8mb 82f
2:00pm  -  2 mph 1014.2mb 82f
1:00pm 2 5 mph 1014.5mb 81f
12:00pm  -  1 mph 1014.9mb 81f
11:00am 3
mph
1015.1mb 79f
10:00am 5 8 mph 1015mb 78f
9:00am 7 9 mph 1014.7mb 76f
8:00am 7 10 mph 1014.1mb 74f
7:00am 2 5 mph 1013.7mb 73f
6:00am 3 5 mph 1013.4mb 73f
5:00am 2 3 mph 1012.8mb 73f
4:00am 2 3 mph 1012.3mb 73f
3:00am 2 3 mph 1012mb 73f
2:00am 2 3 mph 1012.1mb 73f
1:00am 5 6 mph 1012.2mb 73f
12:00am 3 6 mph 1012.2mb 73f
Tue 09/30 11:00pm 5 8 mph 1012.1mb 73f
10:00pm 6 8 mph 1012.3mb 74f
9:00pm 6 8 mph 1012.3mb 74f
8:00pm 6 7 mph 1011.8mb 75f
7:00pm 5 7 mph 1011.3mb 75f
6:00pm 3 6 mph 1010.8mb 76f
5:00pm 8 10 mph 1010.5mb 77f
4:00pm 7 9 mph 1010.1mb 76f
3:00pm 6 8 mph 1010mb 78f
2:00pm 6 8 mph 1010.3mb 76f
1:00pm 5 6 mph 1011.1mb 76f
12:00pm 5 7 mph 1012.1mb 74f
11:00am 7 9 mph 1012.4mb 74f
10:00am 8 11 mph 1012.1mb 73f
9:00am 7 11 mph 1011.8mb 71f
8:00am 6 9 mph 1011.6mb 72f
7:00am 5 6 mph 1011.3mb 73f
6:00am 3 5 mph 1011mb 73f
5:00am 3 6 mph 1010.5mb 73f
4:00am 3 5 mph 1010mb 73f
3:00am 5 6 mph 1010mb 73f
2:00am 7 9 mph 1010.2mb 73f
1:00am 3 6 mph 1010.4mb 73f
12:00am 6 8 mph 1010.6mb 73f
Mon 09/29 11:00pm 3 5 mph 1010.6mb 73f
10:00pm 5
mph
1010.6mb 74f
9:00pm 2
mph
1010.9mb 75f
8:00pm 2 3 mph 1010.8mb 76f
7:00pm 5 6 mph 1010.3mb 78f
6:00pm 9 10 mph 1010.5mb 78f
5:00pm 9 10 mph 1010.7mb 77f
4:00pm 11 13 mph 1010.7mb 77f
3:00pm 7 8 mph 1010.7mb 78f
2:00pm 5 6 mph 1010.8mb 77f
1:00pm 6 7 mph 1012.1mb 75f
12:00pm 7 8 mph 1012.9mb 74f
11:00am 6
mph
1013.3mb 74f
10:00am 5 6 mph 1013.3mb 73f
9:00am 8 10 mph 1013.5mb 73f
8:00am 9 11 mph 1013.4mb 73f
7:00am 8 9 mph 1013.2mb 73f
6:00am 6 7 mph 1013.2mb 73f
5:00am 5 7 mph 1012.9mb 73f
4:00am 6 8 mph 1012.9mb 73f
3:00am 7 10 mph 1012.9mb 72f
2:00am 5 6 mph 1013.8mb 73f
1:00am 8 9 mph 1014.2mb 72f
12:00am 7 10 mph 1015.1mb 72f
Sun 09/28 11:00pm 6 8 mph 1015.5mb 72f
10:00pm 6 9 mph 1015.5mb 72f
9:00pm 7 8 mph 1015.8mb 73f
8:00pm 6 8 mph 1015.5mb 72f
7:00pm 8 9 mph 1014.9mb 72f
6:00pm 13 15 mph 1015.2mb 76f
5:00pm 7 9 mph 1014.9mb 81f
4:00pm 5 7 mph 1014.5mb 82f
3:00pm 5 6 mph 1014.7mb 82f
2:00pm 6 8 mph 1015.3mb 81f